sensor_id;sensor_type;location;lat;lon;timestamp;temperature;humidity
21037;DHT22;10677;50.942;4.028;2023-03-20T00:02:04;7.70;99.90
21037;DHT22;10677;50.942;4.028;2023-03-20T00:04:30;7.60;99.90
21037;DHT22;10677;50.942;4.028;2023-03-20T00:06:56;7.60;99.90
21037;DHT22;10677;50.942;4.028;2023-03-20T00:09:21;7.60;99.90
21037;DHT22;10677;50.942;4.028;2023-03-20T00:11:49;7.60;99.90
21037;DHT22;10677;50.942;4.028;2023-03-20T00:14:17;7.50;99.90
21037;DHT22;10677;50.942;4.028;2023-03-20T00:16:45;7.40;99.90
21037;DHT22;10677;50.942;4.028;2023-03-20T00:19:26;7.40;99.90
21037;DHT22;10677;50.942;4.028;2023-03-20T00:21:54;7.30;99.90
21037;DHT22;10677;50.942;4.028;2023-03-20T00:24:21;7.20;99.90
21037;DHT22;10677;50.942;4.028;2023-03-20T00:26:48;7.10;99.90
21037;DHT22;10677;50.942;4.028;2023-03-20T00:29:26;7.10;99.90
21037;DHT22;10677;50.942;4.028;2023-03-20T00:31:52;7.10;99.90
21037;DHT22;10677;50.942;4.028;2023-03-20T00:34:21;7.00;99.90
21037;DHT22;10677;50.942;4.028;2023-03-20T00:36:52;7.00;99.90
21037;DHT22;10677;50.942;4.028;2023-03-20T00:39:18;7.00;99.90
21037;DHT22;10677;50.942;4.028;2023-03-20T00:41:58;7.10;99.90
21037;DHT22;10677;50.942;4.028;2023-03-20T00:47:09;6.90;99.90
21037;DHT22;10677;50.942;4.028;2023-03-20T00:49:37;7.00;99.90
21037;DHT22;10677;50.942;4.028;2023-03-20T00:52:05;7.00;99.90
21037;DHT22;10677;50.942;4.028;2023-03-20T00:54:31;7.00;99.90
21037;DHT22;10677;50.942;4.028;2023-03-20T00:59:36;7.00;99.90
21037;DHT22;10677;50.942;4.028;2023-03-20T01:02:03;6.90;99.90
21037;DHT22;10677;50.942;4.028;2023-03-20T01:04:38;6.90;99.90
21037;DHT22;10677;50.942;4.028;2023-03-20T01:07:05;6.90;99.90
21037;DHT22;10677;50.942;4.028;2023-03-20T01:09:32;6.90;99.90
21037;DHT22;10677;50.942;4.028;2023-03-20T01:12:01;6.90;99.90
21037;DHT22;10677;50.942;4.028;2023-03-20T01:14:27;7.00;99.90
21037;DHT22;10677;50.942;4.028;2023-03-20T01:16:53;6.90;99.90
21037;DHT22;10677;50.942;4.028;2023-03-20T01:19:19;6.90;99.90
21037;DHT22;10677;50.942;4.028;2023-03-20T01:21:45;7.00;99.90
21037;DHT22;10677;50.942;4.028;2023-03-20T01:24:10;7.00;99.90
21037;DHT22;10677;50.942;4.028;2023-03-20T01:26:38;7.00;99.90
21037;DHT22;10677;50.942;4.028;2023-03-20T01:29:21;7.10;99.90
21037;DHT22;10677;50.942;4.028;2023-03-20T01:31:48;7.00;99.90
21037;DHT22;10677;50.942;4.028;2023-03-20T01:34:14;7.10;99.90
21037;DHT22;10677;50.942;4.028;2023-03-20T01:36:49;7.00;99.90
21037;DHT22;10677;50.942;4.028;2023-03-20T01:39:15;7.00;99.90
21037;DHT22;10677;50.942;4.028;2023-03-20T01:41:43;7.00;99.90
21037;DHT22;10677;50.942;4.028;2023-03-20T01:44:28;7.00;99.90
21037;DHT22;10677;50.942;4.028;2023-03-20T01:46:54;7.00;99.90
21037;DHT22;10677;50.942;4.028;2023-03-20T01:51:47;7.00;99.90
21037;DHT22;10677;50.942;4.028;2023-03-20T01:54:23;7.00;99.90
21037;DHT22;10677;50.942;4.028;2023-03-20T01:57:25;7.10;99.90
21037;DHT22;10677;50.942;4.028;2023-03-20T02:00:00;7.10;99.90
21037;DHT22;10677;50.942;4.028;2023-03-20T02:02:29;7.10;99.90
21037;DHT22;10677;50.942;4.028;2023-03-20T02:04:59;7.20;99.90
21037;DHT22;10677;50.942;4.028;2023-03-20T02:07:26;7.10;99.90
21037;DHT22;10677;50.942;4.028;2023-03-20T02:09:52;7.20;99.90
21037;DHT22;10677;50.942;4.028;2023-03-20T02:12:19;7.10;99.90
21037;DHT22;10677;50.942;4.028;2023-03-20T02:14:46;7.20;99.90
21037;DHT22;10677;50.942;4.028;2023-03-20T02:17:12;7.20;99.90
21037;DHT22;10677;50.942;4.028;2023-03-20T02:25:56;7.10;99.90
21037;DHT22;10677;50.942;4.028;2023-03-20T02:39:32;7.10;99.90
21037;DHT22;10677;50.942;4.028;2023-03-20T02:42:07;7.10;99.90
21037;DHT22;10677;50.942;4.028;2023-03-20T02:45:32;7.10;99.90
21037;DHT22;10677;50.942;4.028;2023-03-20T02:57:02;7.10;99.90
21037;DHT22;10677;50.942;4.028;2023-03-20T02:59:49;7.10;99.90
21037;DHT22;10677;50.942;4.028;2023-03-20T03:02:37;7.10;99.90
21037;DHT22;10677;50.942;4.028;2023-03-20T03:05:12;7.00;99.90
21037;DHT22;10677;50.942;4.028;2023-03-20T03:07:42;6.80;99.90
21037;DHT22;10677;50.942;4.028;2023-03-20T03:10:20;6.80;99.90
21037;DHT22;10677;50.942;4.028;2023-03-20T03:12:48;6.80;99.90
21037;DHT22;10677;50.942;4.028;2023-03-20T03:15:36;6.80;99.90
21037;DHT22;10677;50.942;4.028;2023-03-20T03:18:05;6.70;99.90
21037;DHT22;10677;50.942;4.028;2023-03-20T03:20:38;6.80;99.90
21037;DHT22;10677;50.942;4.028;2023-03-20T03:23:05;6.90;99.90
21037;DHT22;10677;50.942;4.028;2023-03-20T03:25:35;6.90;99.90
21037;DHT22;10677;50.942;4.028;2023-03-20T03:28:11;6.80;99.90
21037;DHT22;10677;50.942;4.028;2023-03-20T03:30:41;6.80;99.90
21037;DHT22;10677;50.942;4.028;2023-03-20T03:33:17;6.80;99.90
21037;DHT22;10677;50.942;4.028;2023-03-20T03:35:45;6.80;99.90
21037;DHT22;10677;50.942;4.028;2023-03-20T03:41:14;6.80;99.90
21037;DHT22;10677;50.942;4.028;2023-03-20T03:46:18;6.80;99.90
21037;DHT22;10677;50.942;4.028;2023-03-20T03:48:50;6.80;99.90
21037;DHT22;10677;50.942;4.028;2023-03-20T03:51:22;6.80;99.90
21037;DHT22;10677;50.942;4.028;2023-03-20T03:54:52;6.80;99.90
21037;DHT22;10677;50.942;4.028;2023-03-20T03:57:00;6.90;99.90
21037;DHT22;10677;50.942;4.028;2023-03-20T03:59:35;6.90;99.90
21037;DHT22;10677;50.942;4.028;2023-03-20T04:02:04;6.90;99.90
21037;DHT22;10677;50.942;4.028;2023-03-20T04:04:31;7.00;99.90
21037;DHT22;10677;50.942;4.028;2023-03-20T04:06:58;7.10;99.90
21037;DHT22;10677;50.942;4.028;2023-03-20T04:09:24;7.20;99.90
21037;DHT22;10677;50.942;4.028;2023-03-20T04:11:51;7.30;99.90
21037;DHT22;10677;50.942;4.028;2023-03-20T04:14:18;7.30;99.90
21037;DHT22;10677;50.942;4.028;2023-03-20T04:16:44;7.30;99.90
21037;DHT22;10677;50.942;4.028;2023-03-20T04:19:10;7.40;99.90
21037;DHT22;10677;50.942;4.028;2023-03-20T04:21:36;7.30;99.90
21037;DHT22;10677;50.942;4.028;2023-03-20T04:24:01;7.30;99.90
21037;DHT22;10677;50.942;4.028;2023-03-20T04:26:27;7.30;99.90
21037;DHT22;10677;50.942;4.028;2023-03-20T04:28:53;7.30;99.90
21037;DHT22;10677;50.942;4.028;2023-03-20T04:31:19;7.30;99.90
21037;DHT22;10677;50.942;4.028;2023-03-20T04:33:45;7.20;99.90
21037;DHT22;10677;50.942;4.028;2023-03-20T04:36:12;7.20;99.90
21037;DHT22;10677;50.942;4.028;2023-03-20T04:38:38;7.30;99.90
21037;DHT22;10677;50.942;4.028;2023-03-20T04:41:04;7.30;99.90
21037;DHT22;10677;50.942;4.028;2023-03-20T04:43:30;7.30;99.90
21037;DHT22;10677;50.942;4.028;2023-03-20T04:45:56;7.30;99.90
21037;DHT22;10677;50.942;4.028;2023-03-20T04:48:22;7.40;99.90
21037;DHT22;10677;50.942;4.028;2023-03-20T04:50:47;7.30;99.90
21037;DHT22;10677;50.942;4.028;2023-03-20T04:53:16;7.20;99.90
21037;DHT22;10677;50.942;4.028;2023-03-20T04:55:42;7.20;99.90
21037;DHT22;10677;50.942;4.028;2023-03-20T04:58:08;7.20;99.90
21037;DHT22;10677;50.942;4.028;2023-03-20T05:00:34;7.10;99.90
21037;DHT22;10677;50.942;4.028;2023-03-20T05:03:01;7.10;99.90
21037;DHT22;10677;50.942;4.028;2023-03-20T05:05:27;7.10;99.90
21037;DHT22;10677;50.942;4.028;2023-03-20T05:07:54;7.00;99.90
21037;DHT22;10677;50.942;4.028;2023-03-20T05:10:20;7.00;99.90
21037;DHT22;10677;50.942;4.028;2023-03-20T05:12:46;7.10;99.90
21037;DHT22;10677;50.942;4.028;2023-03-20T05:15:12;7.00;99.90
21037;DHT22;10677;50.942;4.028;2023-03-20T05:17:38;7.10;99.90
21037;DHT22;10677;50.942;4.028;2023-03-20T05:20:05;7.10;99.90
21037;DHT22;10677;50.942;4.028;2023-03-20T05:22:31;7.10;99.90
21037;DHT22;10677;50.942;4.028;2023-03-20T05:24:56;7.10;99.90
21037;DHT22;10677;50.942;4.028;2023-03-20T05:27:22;7.00;99.90
21037;DHT22;10677;50.942;4.028;2023-03-20T05:29:48;7.10;99.90
21037;DHT22;10677;50.942;4.028;2023-03-20T05:32:13;7.20;99.90
21037;DHT22;10677;50.942;4.028;2023-03-20T05:34:40;7.10;99.90
21037;DHT22;10677;50.942;4.028;2023-03-20T05:37:05;7.10;99.90
21037;DHT22;10677;50.942;4.028;2023-03-20T05:39:31;7.20;99.90
21037;DHT22;10677;50.942;4.028;2023-03-20T05:41:56;7.10;99.90
21037;DHT22;10677;50.942;4.028;2023-03-20T05:44:22;7.00;99.90
21037;DHT22;10677;50.942;4.028;2023-03-20T05:46:48;7.00;99.90
21037;DHT22;10677;50.942;4.028;2023-03-20T05:49:13;7.00;99.90
21037;DHT22;10677;50.942;4.028;2023-03-20T05:51:39;6.90;99.90
21037;DHT22;10677;50.942;4.028;2023-03-20T05:54:04;6.90;99.90
21037;DHT22;10677;50.942;4.028;2023-03-20T05:56:31;6.90;99.90
21037;DHT22;10677;50.942;4.028;2023-03-20T05:58:56;6.80;99.90
21037;DHT22;10677;50.942;4.028;2023-03-20T06:01:22;6.90;99.90
21037;DHT22;10677;50.942;4.028;2023-03-20T06:03:48;6.90;99.90
21037;DHT22;10677;50.942;4.028;2023-03-20T06:06:15;6.90;99.90
21037;DHT22;10677;50.942;4.028;2023-03-20T06:08:42;6.90;99.90
21037;DHT22;10677;50.942;4.028;2023-03-20T06:11:09;6.90;99.90
21037;DHT22;10677;50.942;4.028;2023-03-20T06:13:35;7.00;99.90
21037;DHT22;10677;50.942;4.028;2023-03-20T06:16:02;7.00;99.90
21037;DHT22;10677;50.942;4.028;2023-03-20T06:18:28;7.00;99.90
21037;DHT22;10677;50.942;4.028;2023-03-20T06:20:56;7.10;99.90
21037;DHT22;10677;50.942;4.028;2023-03-20T06:23:22;7.10;99.90
21037;DHT22;10677;50.942;4.028;2023-03-20T06:25:48;7.20;99.90
21037;DHT22;10677;50.942;4.028;2023-03-20T06:28:15;7.20;99.90
21037;DHT22;10677;50.942;4.028;2023-03-20T06:30:42;7.20;99.90
21037;DHT22;10677;50.942;4.028;2023-03-20T06:33:08;7.20;99.90
21037;DHT22;10677;50.942;4.028;2023-03-20T06:35:35;7.20;99.90
21037;DHT22;10677;50.942;4.028;2023-03-20T06:38:02;7.20;99.90
21037;DHT22;10677;50.942;4.028;2023-03-20T06:40:28;7.20;99.90
21037;DHT22;10677;50.942;4.028;2023-03-20T06:42:53;7.30;99.90
21037;DHT22;10677;50.942;4.028;2023-03-20T06:45:20;7.20;99.90
21037;DHT22;10677;50.942;4.028;2023-03-20T06:47:46;7.30;99.90
21037;DHT22;10677;50.942;4.028;2023-03-20T06:50:14;7.40;99.90
21037;DHT22;10677;50.942;4.028;2023-03-20T06:52:41;7.50;99.90
21037;DHT22;10677;50.942;4.028;2023-03-20T06:55:07;7.60;99.90
21037;DHT22;10677;50.942;4.028;2023-03-20T06:57:33;7.60;99.90
21037;DHT22;10677;50.942;4.028;2023-03-20T06:59:59;7.70;99.90
21037;DHT22;10677;50.942;4.028;2023-03-20T07:02:25;7.70;99.90
21037;DHT22;10677;50.942;4.028;2023-03-20T07:04:52;7.70;99.90
21037;DHT22;10677;50.942;4.028;2023-03-20T07:07:18;7.70;99.90
21037;DHT22;10677;50.942;4.028;2023-03-20T07:09:45;7.80;99.90
21037;DHT22;10677;50.942;4.028;2023-03-20T07:12:12;7.80;99.90
21037;DHT22;10677;50.942;4.028;2023-03-20T07:14:39;7.80;99.90
21037;DHT22;10677;50.942;4.028;2023-03-20T07:17:07;7.90;99.90
21037;DHT22;10677;50.942;4.028;2023-03-20T07:19:34;7.90;99.90
21037;DHT22;10677;50.942;4.028;2023-03-20T07:22:02;8.00;99.90
21037;DHT22;10677;50.942;4.028;2023-03-20T07:24:29;7.90;99.90
21037;DHT22;10677;50.942;4.028;2023-03-20T07:26:56;8.00;99.90
21037;DHT22;10677;50.942;4.028;2023-03-20T07:29:21;8.10;99.90
21037;DHT22;10677;50.942;4.028;2023-03-20T07:31:47;8.00;99.90
21037;DHT22;10677;50.942;4.028;2023-03-20T07:34:13;8.10;99.90
21037;DHT22;10677;50.942;4.028;2023-03-20T07:36:39;8.30;99.90
21037;DHT22;10677;50.942;4.028;2023-03-20T07:39:07;8.40;99.90
21037;DHT22;10677;50.942;4.028;2023-03-20T07:41:35;8.50;99.90
21037;DHT22;10677;50.942;4.028;2023-03-20T07:44:02;8.50;99.90
21037;DHT22;10677;50.942;4.028;2023-03-20T07:46:29;8.40;99.90
21037;DHT22;10677;50.942;4.028;2023-03-20T07:48:55;8.50;99.90
21037;DHT22;10677;50.942;4.028;2023-03-20T07:51:26;8.50;99.90
21037;DHT22;10677;50.942;4.028;2023-03-20T07:54:02;8.50;99.90
21037;DHT22;10677;50.942;4.028;2023-03-20T07:56:29;8.50;99.90
21037;DHT22;10677;50.942;4.028;2023-03-20T07:58:58;8.60;99.90
21037;DHT22;10677;50.942;4.028;2023-03-20T08:01:27;8.60;99.90
21037;DHT22;10677;50.942;4.028;2023-03-20T08:03:53;8.60;99.90
21037;DHT22;10677;50.942;4.028;2023-03-20T08:06:21;8.70;99.90
21037;DHT22;10677;50.942;4.028;2023-03-20T08:08:47;8.80;99.90
21037;DHT22;10677;50.942;4.028;2023-03-20T08:11:16;8.80;99.90
21037;DHT22;10677;50.942;4.028;2023-03-20T08:13:42;8.80;99.90
21037;DHT22;10677;50.942;4.028;2023-03-20T08:16:09;8.90;99.90
21037;DHT22;10677;50.942;4.028;2023-03-20T08:18:35;8.90;99.90
21037;DHT22;10677;50.942;4.028;2023-03-20T08:21:01;8.90;99.90
21037;DHT22;10677;50.942;4.028;2023-03-20T08:23:26;8.90;99.90
21037;DHT22;10677;50.942;4.028;2023-03-20T08:25:54;9.00;99.90
21037;DHT22;10677;50.942;4.028;2023-03-20T08:28:20;9.10;99.90
21037;DHT22;10677;50.942;4.028;2023-03-20T08:30:46;9.20;99.90
21037;DHT22;10677;50.942;4.028;2023-03-20T08:33:16;9.30;99.90
21037;DHT22;10677;50.942;4.028;2023-03-20T08:36:00;9.40;99.90
21037;DHT22;10677;50.942;4.028;2023-03-20T08:38:26;9.40;99.90
21037;DHT22;10677;50.942;4.028;2023-03-20T08:40:52;9.30;99.90
21037;DHT22;10677;50.942;4.028;2023-03-20T08:43:19;9.30;99.90
21037;DHT22;10677;50.942;4.028;2023-03-20T08:45:45;9.40;99.90
21037;DHT22;10677;50.942;4.028;2023-03-20T08:48:11;9.50;99.90
21037;DHT22;10677;50.942;4.028;2023-03-20T08:50:37;9.50;99.90
21037;DHT22;10677;50.942;4.028;2023-03-20T08:53:03;9.50;99.90
21037;DHT22;10677;50.942;4.028;2023-03-20T08:55:30;9.50;99.90
21037;DHT22;10677;50.942;4.028;2023-03-20T08:57:57;9.60;99.90
21037;DHT22;10677;50.942;4.028;2023-03-20T09:00:24;9.60;99.90
21037;DHT22;10677;50.942;4.028;2023-03-20T09:02:50;9.60;99.90
21037;DHT22;10677;50.942;4.028;2023-03-20T09:05:17;9.70;99.90
21037;DHT22;10677;50.942;4.028;2023-03-20T09:07:42;9.70;99.90
21037;DHT22;10677;50.942;4.028;2023-03-20T09:10:09;9.70;99.90
21037;DHT22;10677;50.942;4.028;2023-03-20T09:12:37;9.70;99.90
21037;DHT22;10677;50.942;4.028;2023-03-20T09:15:04;9.70;99.90
21037;DHT22;10677;50.942;4.028;2023-03-20T09:17:31;9.90;99.90
21037;DHT22;10677;50.942;4.028;2023-03-20T09:19:57;10.10;99.90
21037;DHT22;10677;50.942;4.028;2023-03-20T09:22:24;10.20;99.90
21037;DHT22;10677;50.942;4.028;2023-03-20T09:24:50;10.50;99.90
21037;DHT22;10677;50.942;4.028;2023-03-20T09:27:16;10.50;99.90
21037;DHT22;10677;50.942;4.028;2023-03-20T09:29:42;10.70;99.90
21037;DHT22;10677;50.942;4.028;2023-03-20T09:32:13;10.80;99.90
21037;DHT22;10677;50.942;4.028;2023-03-20T09:34:39;10.70;99.90
21037;DHT22;10677;50.942;4.028;2023-03-20T09:37:05;10.80;99.90
21037;DHT22;10677;50.942;4.028;2023-03-20T09:39:31;11.00;99.90
21037;DHT22;10677;50.942;4.028;2023-03-20T09:42:13;11.00;99.90
21037;DHT22;10677;50.942;4.028;2023-03-20T09:44:50;10.90;99.90
21037;DHT22;10677;50.942;4.028;2023-03-20T09:52:57;11.00;99.90
21037;DHT22;10677;50.942;4.028;2023-03-20T09:55:42;11.00;99.90
21037;DHT22;10677;50.942;4.028;2023-03-20T09:58:32;11.00;99.90
21037;DHT22;10677;50.942;4.028;2023-03-20T10:01:00;11.10;99.90
21037;DHT22;10677;50.942;4.028;2023-03-20T10:03:28;11.00;99.90
21037;DHT22;10677;50.942;4.028;2023-03-20T10:05:59;10.90;99.90
21037;DHT22;10677;50.942;4.028;2023-03-20T10:08:36;11.10;99.90
21037;DHT22;10677;50.942;4.028;2023-03-20T10:21:58;11.60;99.90
21037;DHT22;10677;50.942;4.028;2023-03-20T10:24:31;11.60;99.90
21037;DHT22;10677;50.942;4.028;2023-03-20T10:27:09;11.70;99.90
21037;DHT22;10677;50.942;4.028;2023-03-20T10:29:47;11.70;99.90
21037;DHT22;10677;50.942;4.028;2023-03-20T10:32:18;11.70;99.90
21037;DHT22;10677;50.942;4.028;2023-03-20T10:40:29;12.20;99.90
21037;DHT22;10677;50.942;4.028;2023-03-20T10:43:10;12.30;99.90
21037;DHT22;10677;50.942;4.028;2023-03-20T10:45:45;12.30;99.90
21037;DHT22;10677;50.942;4.028;2023-03-20T10:48:29;12.30;99.90
21037;DHT22;10677;50.942;4.028;2023-03-20T10:50:59;12.40;99.90
21037;DHT22;10677;50.942;4.028;2023-03-20T10:53:33;12.40;99.90
21037;DHT22;10677;50.942;4.028;2023-03-20T10:56:11;12.30;99.90
21037;DHT22;10677;50.942;4.028;2023-03-20T10:58:39;12.40;99.90
21037;DHT22;10677;50.942;4.028;2023-03-20T11:01:06;12.50;99.90
21037;DHT22;10677;50.942;4.028;2023-03-20T11:03:32;12.30;99.90
21037;DHT22;10677;50.942;4.028;2023-03-20T11:06:22;12.20;99.90
21037;DHT22;10677;50.942;4.028;2023-03-20T11:08:51;12.20;99.90
21037;DHT22;10677;50.942;4.028;2023-03-20T11:11:29;12.30;99.90
21037;DHT22;10677;50.942;4.028;2023-03-20T11:14:31;12.30;99.90
21037;DHT22;10677;50.942;4.028;2023-03-20T11:16:55;12.40;99.90
21037;DHT22;10677;50.942;4.028;2023-03-20T11:19:24;12.00;99.90
21037;DHT22;10677;50.942;4.028;2023-03-20T11:21:57;11.90;99.90
21037;DHT22;10677;50.942;4.028;2023-03-20T11:24:40;11.90;99.90
21037;DHT22;10677;50.942;4.028;2023-03-20T11:27:17;12.10;99.90
21037;DHT22;10677;50.942;4.028;2023-03-20T11:29:48;12.40;99.90
21037;DHT22;10677;50.942;4.028;2023-03-20T11:32:34;12.60;99.90
21037;DHT22;10677;50.942;4.028;2023-03-20T11:35:20;13.00;99.90
21037;DHT22;10677;50.942;4.028;2023-03-20T11:37:49;13.00;99.90
21037;DHT22;10677;50.942;4.028;2023-03-20T11:40:17;12.90;99.90
21037;DHT22;10677;50.942;4.028;2023-03-20T11:43:19;12.80;99.90
21037;DHT22;10677;50.942;4.028;2023-03-20T11:46:05;12.80;99.90
21037;DHT22;10677;50.942;4.028;2023-03-20T11:48:39;13.00;99.90
21037;DHT22;10677;50.942;4.028;2023-03-20T11:53:37;13.50;99.90
21037;DHT22;10677;50.942;4.028;2023-03-20T11:56:28;13.80;99.90
21037;DHT22;10677;50.942;4.028;2023-03-20T11:59:03;13.90;99.90
21037;DHT22;10677;50.942;4.028;2023-03-20T12:01:46;14.30;99.90
21037;DHT22;10677;50.942;4.028;2023-03-20T12:06:46;14.60;99.90
21037;DHT22;10677;50.942;4.028;2023-03-20T12:17:45;14.60;99.90
21037;DHT22;10677;50.942;4.028;2023-03-20T12:23:11;14.40;99.90
21037;DHT22;10677;50.942;4.028;2023-03-20T12:25:51;14.50;99.90
21037;DHT22;10677;50.942;4.028;2023-03-20T12:31:25;14.30;99.90
21037;DHT22;10677;50.942;4.028;2023-03-20T12:36:45;13.80;99.90
21037;DHT22;10677;50.942;4.028;2023-03-20T12:39:17;13.70;99.90
21037;DHT22;10677;50.942;4.028;2023-03-20T12:47:21;13.60;99.90
21037;DHT22;10677;50.942;4.028;2023-03-20T12:49:59;13.90;99.90
21037;DHT22;10677;50.942;4.028;2023-03-20T12:52:48;14.00;99.90
21037;DHT22;10677;50.942;4.028;2023-03-20T13:03:21;13.70;99.90
21037;DHT22;10677;50.942;4.028;2023-03-20T13:24:46;14.00;99.90
21037;DHT22;10677;50.942;4.028;2023-03-20T13:32:16;13.80;99.90
21037;DHT22;10677;50.942;4.028;2023-03-20T13:34:52;13.80;99.90
21037;DHT22;10677;50.942;4.028;2023-03-20T13:37:39;13.80;99.90
21037;DHT22;10677;50.942;4.028;2023-03-20T13:40:25;13.80;99.90
21037;DHT22;10677;50.942;4.028;2023-03-20T13:48:39;13.60;99.90
21037;DHT22;10677;50.942;4.028;2023-03-20T14:05:13;13.60;99.90
21037;DHT22;10677;50.942;4.028;2023-03-20T14:07:46;13.50;99.90
21037;DHT22;10677;50.942;4.028;2023-03-20T14:12:54;13.50;99.90
21037;DHT22;10677;50.942;4.028;2023-03-20T14:15:22;13.40;99.90
21037;DHT22;10677;50.942;4.028;2023-03-20T14:17:50;13.40;99.90
21037;DHT22;10677;50.942;4.028;2023-03-20T14:22:58;13.40;99.90
21037;DHT22;10677;50.942;4.028;2023-03-20T14:25:24;13.40;99.90
21037;DHT22;10677;50.942;4.028;2023-03-20T14:27:58;13.50;99.90
21037;DHT22;10677;50.942;4.028;2023-03-20T14:35:50;13.60;99.90
21037;DHT22;10677;50.942;4.028;2023-03-20T14:38:34;13.60;99.90
21037;DHT22;10677;50.942;4.028;2023-03-20T14:41:11;13.40;99.90
21037;DHT22;10677;50.942;4.028;2023-03-20T14:48:54;13.40;99.90
21037;DHT22;10677;50.942;4.028;2023-03-20T14:51:26;13.40;99.90
21037;DHT22;10677;50.942;4.028;2023-03-20T14:54:28;13.40;99.90
21037;DHT22;10677;50.942;4.028;2023-03-20T14:56:55;13.40;99.90
21037;DHT22;10677;50.942;4.028;2023-03-20T14:59:32;13.40;99.90
21037;DHT22;10677;50.942;4.028;2023-03-20T15:02:00;13.50;99.90
21037;DHT22;10677;50.942;4.028;2023-03-20T15:04:30;13.50;99.90
21037;DHT22;10677;50.942;4.028;2023-03-20T15:07:03;13.60;99.90
21037;DHT22;10677;50.942;4.028;2023-03-20T15:09:34;13.50;99.90
21037;DHT22;10677;50.942;4.028;2023-03-20T15:12:02;13.40;99.90
21037;DHT22;10677;50.942;4.028;2023-03-20T15:14:33;13.30;99.90
21037;DHT22;10677;50.942;4.028;2023-03-20T15:17:02;13.30;99.90
21037;DHT22;10677;50.942;4.028;2023-03-20T15:19:28;13.20;99.90
21037;DHT22;10677;50.942;4.028;2023-03-20T15:21:54;13.20;99.90
21037;DHT22;10677;50.942;4.028;2023-03-20T15:24:28;13.20;99.90
21037;DHT22;10677;50.942;4.028;2023-03-20T15:26:58;13.20;99.90
21037;DHT22;10677;50.942;4.028;2023-03-20T15:29:24;13.30;99.90
21037;DHT22;10677;50.942;4.028;2023-03-20T15:31:54;13.30;99.90
21037;DHT22;10677;50.942;4.028;2023-03-20T15:34:26;13.40;99.90
21037;DHT22;10677;50.942;4.028;2023-03-20T15:36:56;13.50;99.90
21037;DHT22;10677;50.942;4.028;2023-03-20T15:39:28;13.60;99.90
21037;DHT22;10677;50.942;4.028;2023-03-20T15:42:00;13.60;99.90
21037;DHT22;10677;50.942;4.028;2023-03-20T15:44:34;13.70;99.90
21037;DHT22;10677;50.942;4.028;2023-03-20T15:49:34;13.90;99.90
21037;DHT22;10677;50.942;4.028;2023-03-20T15:54:41;13.60;99.90
21037;DHT22;10677;50.942;4.028;2023-03-20T15:57:15;13.40;99.90
21037;DHT22;10677;50.942;4.028;2023-03-20T15:59:42;13.40;99.90
21037;DHT22;10677;50.942;4.028;2023-03-20T16:02:10;13.50;99.90
21037;DHT22;10677;50.942;4.028;2023-03-20T16:04:36;13.60;99.90
21037;DHT22;10677;50.942;4.028;2023-03-20T16:07:19;13.60;99.90
21037;DHT22;10677;50.942;4.028;2023-03-20T16:09:45;13.60;99.90
21037;DHT22;10677;50.942;4.028;2023-03-20T16:12:16;13.50;99.90
21037;DHT22;10677;50.942;4.028;2023-03-20T16:14:43;13.50;99.90
21037;DHT22;10677;50.942;4.028;2023-03-20T16:17:11;13.50;99.90
21037;DHT22;10677;50.942;4.028;2023-03-20T16:19:38;13.60;99.90
21037;DHT22;10677;50.942;4.028;2023-03-20T16:24:45;13.50;99.90
21037;DHT22;10677;50.942;4.028;2023-03-20T16:27:14;13.40;99.90
21037;DHT22;10677;50.942;4.028;2023-03-20T16:29:44;13.50;99.90
21037;DHT22;10677;50.942;4.028;2023-03-20T16:32:34;13.60;99.90
21037;DHT22;10677;50.942;4.028;2023-03-20T16:36:03;13.70;99.90
21037;DHT22;10677;50.942;4.028;2023-03-20T16:38:00;13.60;99.90
21037;DHT22;10677;50.942;4.028;2023-03-20T16:42:53;13.50;99.90
21037;DHT22;10677;50.942;4.028;2023-03-20T16:45:30;13.40;99.90
21037;DHT22;10677;50.942;4.028;2023-03-20T16:48:22;13.30;99.90
21037;DHT22;10677;50.942;4.028;2023-03-20T16:50:58;13.40;99.90
21037;DHT22;10677;50.942;4.028;2023-03-20T16:53:28;13.40;99.90
21037;DHT22;10677;50.942;4.028;2023-03-20T16:55:55;13.50;99.90
21037;DHT22;10677;50.942;4.028;2023-03-20T16:58:27;13.40;99.90
21037;DHT22;10677;50.942;4.028;2023-03-20T17:01:36;13.30;99.90
21037;DHT22;10677;50.942;4.028;2023-03-20T17:06:34;13.30;99.90
21037;DHT22;10677;50.942;4.028;2023-03-20T17:11:43;13.20;99.90
21037;DHT22;10677;50.942;4.028;2023-03-20T17:14:09;13.20;99.90
21037;DHT22;10677;50.942;4.028;2023-03-20T17:16:35;13.20;99.90
21037;DHT22;10677;50.942;4.028;2023-03-20T17:19:11;13.20;99.90
21037;DHT22;10677;50.942;4.028;2023-03-20T17:21:38;13.20;99.90
21037;DHT22;10677;50.942;4.028;2023-03-20T17:24:04;13.10;99.90
21037;DHT22;10677;50.942;4.028;2023-03-20T17:26:30;13.10;99.90
21037;DHT22;10677;50.942;4.028;2023-03-20T17:28:57;13.10;99.90
21037;DHT22;10677;50.942;4.028;2023-03-20T17:31:22;13.10;99.90
21037;DHT22;10677;50.942;4.028;2023-03-20T17:33:48;13.10;99.90
21037;DHT22;10677;50.942;4.028;2023-03-20T17:36:25;13.00;99.90
21037;DHT22;10677;50.942;4.028;2023-03-20T17:38:55;13.00;99.90
21037;DHT22;10677;50.942;4.028;2023-03-20T17:41:22;13.00;99.90
21037;DHT22;10677;50.942;4.028;2023-03-20T17:43:48;12.90;99.90
21037;DHT22;10677;50.942;4.028;2023-03-20T17:46:22;12.80;99.90
21037;DHT22;10677;50.942;4.028;2023-03-20T17:48:50;12.80;99.90
21037;DHT22;10677;50.942;4.028;2023-03-20T17:51:17;12.90;99.90
21037;DHT22;10677;50.942;4.028;2023-03-20T17:53:43;12.90;99.90
21037;DHT22;10677;50.942;4.028;2023-03-20T17:56:13;12.80;99.90
21037;DHT22;10677;50.942;4.028;2023-03-20T17:58:39;12.90;99.90
21037;DHT22;10677;50.942;4.028;2023-03-20T18:01:05;12.80;99.90
21037;DHT22;10677;50.942;4.028;2023-03-20T18:03:33;12.90;99.90
21037;DHT22;10677;50.942;4.028;2023-03-20T18:05:59;12.80;99.90
21037;DHT22;10677;50.942;4.028;2023-03-20T18:08:25;12.80;99.90
21037;DHT22;10677;50.942;4.028;2023-03-20T18:10:53;12.80;99.90
21037;DHT22;10677;50.942;4.028;2023-03-20T18:13:20;12.80;99.90
21037;DHT22;10677;50.942;4.028;2023-03-20T18:15:47;12.80;99.90
21037;DHT22;10677;50.942;4.028;2023-03-20T18:18:14;12.80;99.90
21037;DHT22;10677;50.942;4.028;2023-03-20T18:20:40;12.70;99.90
21037;DHT22;10677;50.942;4.028;2023-03-20T18:23:06;12.70;99.90
21037;DHT22;10677;50.942;4.028;2023-03-20T18:25:32;12.60;99.90
21037;DHT22;10677;50.942;4.028;2023-03-20T18:28:00;12.60;99.90
21037;DHT22;10677;50.942;4.028;2023-03-20T18:30:31;12.50;99.90
21037;DHT22;10677;50.942;4.028;2023-03-20T18:32:58;12.50;99.90
21037;DHT22;10677;50.942;4.028;2023-03-20T18:35:23;12.40;99.90
21037;DHT22;10677;50.942;4.028;2023-03-20T18:37:49;12.40;99.90
21037;DHT22;10677;50.942;4.028;2023-03-20T18:40:19;12.30;99.90
21037;DHT22;10677;50.942;4.028;2023-03-20T18:42:45;12.30;99.90
21037;DHT22;10677;50.942;4.028;2023-03-20T18:45:11;12.30;99.90
21037;DHT22;10677;50.942;4.028;2023-03-20T18:47:38;12.40;99.90
21037;DHT22;10677;50.942;4.028;2023-03-20T18:50:04;12.40;99.90
21037;DHT22;10677;50.942;4.028;2023-03-20T18:52:30;12.60;99.90